Aérodrome :
LOGIN :

S'inscrire | Disclaimer

   EN    FR    IT 

 










Légende :    VFR   VFR Marginal   IFR   IFR Intensif   IFR Très Intensif
Visi : 
Plafond : 
>= 8 km
>= 3000ft
5 à 8 km
1000 à 3000 ft
1500m à 5 km
500 à 1000 ft
800 à 1500m
200 à 500 ft
< 800m
< 200 ft
Symboles :   Orages  Brouillard  Fortes neiges  Fortes précipitations  Vent > 20 kt
SIGMETs :   Divers  Orages  Givrage  Turbulence  Onde Orograph.  Cendres Volcan.







- Altitude de l'aérodrome : 117 ft
- Code IATA : NWI
- Voir les cartes d'approche


EGSH - Norwich

DERNIER METAR :
  • 180720Z VRB02KT 9999 MIFG SCT018 09/09 Q1027 TEMPO 4000 BR

METARs EXPIRÉS :
  • 180650Z VRB01KT 9999 R27/0750 MIFG FEW029 08/08 Q1027 TEMPO 1200 BR
  • 180620Z 33003KT 9999 R27/0750 MIFG FEW018 08/08 Q1026 TEMPO 1200 BR
  • 180550Z 31003KT 9999 R27/0650 BCFG FEW018 08/08 Q1026 TEMPO 1200 BR
  • 180520Z 32002KT 9999 R27/0900 MIFG NSC 07/07 Q1026 TEMPO 1200 BR
  • 180450Z 30002KT 9999 R27/0800 MIFG NSC 07/07 Q1026 TEMPO 0800 FG

TAF TAF EGSH
Valide du 18 à 06h jusqu'au 18 à 15h UTC


180457Z 1806/1815 36004KT 9999 FEW020
PROB40 1806/1809 1200 BR MIFG
ATIS : +44 1603 420 640
Pas de NOTAMs connus pour ce terrain.



MET'MAP, la Météo Aéronautique d'un coup d'oeil ! - Copyright ORBIFLY Décembre 2007 - Disclaimer

ORBIFLY MET'MAP TEAM :

Programmation & Développement : Alexandra Zaïnal
Conception & Développement : Baudouin d'Aumeries
Co-Programmation & Développement : Marc-Olivier Méhu
Soutien technique & logistique : Manuel Goepfert

Contact : metmap@orbifly.com




SOURCES & CREDITS :

   NOAA